MHLM

Details ICAO MHLM (SAP)
Name La Mesa Intl
Region Honduras
Timezone America/Tegucigalpa (UTC-6.0)
Plans Departing 66
Arriving 72
Stats Elevation 91 ft / 28 m (AMSL)
Location 15.451957° -87.924153°
Runways 1
Magnetic Variation 0.473° W
Sunrise 2017-12-12 12:10:17 UTC / 2017-12-12 06:10:17 Local
Sunset 2017-12-12 23:23:39 UTC / 2017-12-12 17:23:39 Local
Advertisement - Login to hide

Runways

ID Width Length Bearing (true) Bearing (mag) Surface Threshold Offset Overrun Length
04 148 ft / 45 m 9,232 ft / 2,814 m 40.08° 40.55° Concrete 656 ft / 200 m 262 ft / 80 m
22 148 ft / 45 m 9,232 ft / 2,814 m 220.08° 220.55° Concrete 0 ft / 0 m 492 ft / 150 m

Map

Weather


0- 5 10 15 20 25 30 35+ Temperature / ° C

Clouds and Precipitation
Forecast for 2017-12-12 18:00 UTC. Updated an hour ago

Ground ~20,000 ft ~40,000 ft Winds

METAR

MHLM 121400Z 00000KT 9999 FEW026 BKN080 20/19 Q1022 A3018 NOSIG

TAF

Not found

Frequencies

Ground 121.90 MHz GND
Approach 119.70 MHz APP
Tower 118.20 MHz TWR
Warning: Do not use this data for real-world aviation or navigation. No guarantee of current accuracy is given.